Time;durP1;ratioP1;P1;durP2;ratioP2;P2;SDS_P1;SDS_P2;PMS_P1;PMS_P2;Temp;Humidity;BMP_temperature;BMP_pressure;BME280_temperature;BME280_humidity;BME280_pressure;Samples;Min_cycle;Max_cycle;Signal;HPM_P1;HPM_P2
2023/02/04 00:01:22;;;;;;;13.73;7.82;;;1.10;99.90;;;;;;5051949;28;20052;-74
2023/02/04 00:03:48;;;;;;;12.80;7.55;;;1.10;99.90;;;;;;5053068;28;20099;-72
2023/02/04 00:06:14;;;;;;;10.10;6.95;;;1.10;99.90;;;;;;5048227;28;20063;-75
2023/02/04 00:08:40;;;;;;;11.18;7.35;;;1.10;99.90;;;;;;5039466;28;20385;-75
2023/02/04 00:11:05;;;;;;;9.80;6.95;;;1.10;99.90;;;;;;5050032;28;20071;-75
2023/02/04 00:13:31;;;;;;;11.15;7.32;;;1.20;99.90;;;;;;5053203;28;20048;-75
2023/02/04 00:15:57;;;;;;;10.48;7.57;;;1.20;99.90;;;;;;5053255;28;20023;-75
2023/02/04 00:18:23;;;;;;;11.73;7.85;;;1.20;99.90;;;;;;5053090;28;20072;-75
2023/02/04 00:20:49;;;;;;;9.20;7.13;;;1.20;99.90;;;;;;5052783;28;20029;-75
2023/02/04 00:23:14;;;;;;;16.05;9.00;;;1.20;99.90;;;;;;5052043;28;20021;-76
2023/02/04 00:25:40;;;;;;;13.48;8.27;;;1.20;99.90;;;;;;5052504;28;20033;-75
2023/02/04 00:28:06;;;;;;;12.30;7.80;;;1.20;99.90;;;;;;5052052;28;20021;-74
2023/02/04 00:30:32;;;;;;;13.07;9.30;;;1.20;99.90;;;;;;5046170;28;20498;-74
2023/02/04 00:32:58;;;;;;;17.27;8.73;;;1.20;99.90;;;;;;5049352;28;20368;-75
2023/02/04 00:35:24;;;;;;;12.93;8.57;;;1.20;99.90;;;;;;5049523;28;20027;-75
2023/02/04 00:37:50;;;;;;;14.20;9.90;;;1.20;99.90;;;;;;5052544;28;20044;-76
2023/02/04 00:40:16;;;;;;;16.15;9.55;;;1.20;99.90;;;;;;5052599;28;20495;-75
2023/02/04 00:42:42;;;;;;;14.00;9.30;;;1.20;99.90;;;;;;5052730;28;20060;-74
2023/02/04 00:45:08;;;;;;;10.52;8.73;;;1.20;99.90;;;;;;5052374;28;20071;-74
2023/02/04 00:47:34;;;;;;;12.77;9.73;;;1.20;99.90;;;;;;5049615;28;20017;-74
2023/02/04 00:50:00;;;;;;;13.20;9.07;;;1.20;99.90;;;;;;5052225;28;21653;-75
2023/02/04 00:52:26;;;;;;;14.60;10.05;;;1.30;99.90;;;;;;5052380;28;20028;-74
2023/02/04 00:54:52;;;;;;;12.02;9.18;;;1.20;99.90;;;;;;5048398;28;20056;-74
2023/02/04 00:57:18;;;;;;;11.40;9.23;;;1.20;99.90;;;;;;5052146;28;20025;-75
2023/02/04 00:59:44;;;;;;;13.40;8.93;;;1.20;99.90;;;;;;5052269;28;20029;-73
2023/02/04 01:02:10;;;;;;;13.40;9.55;;;1.20;99.90;;;;;;5052138;28;20021;-75
2023/02/04 01:04:36;;;;;;;13.77;9.25;;;1.20;99.90;;;;;;5048075;28;20079;-74
2023/02/04 01:07:02;;;;;;;13.38;9.27;;;1.20;99.90;;;;;;5052002;28;20029;-75
2023/02/04 01:09:28;;;;;;;13.88;9.85;;;1.30;99.90;;;;;;5051958;28;20076;-75
2023/02/04 01:11:53;;;;;;;11.32;8.15;;;1.20;99.90;;;;;;5052072;28;20480;-76
2023/02/04 01:14:20;;;;;;;13.27;8.63;;;1.30;99.90;;;;;;5051235;28;20013;-74
2023/02/04 01:16:45;;;;;;;13.90;8.25;;;1.30;99.90;;;;;;5052032;28;20021;-74
2023/02/04 01:19:11;;;;;;;12.93;8.93;;;1.30;99.90;;;;;;5051761;28;20041;-74
2023/02/04 01:21:37;;;;;;;12.35;9.45;;;1.30;99.90;;;;;;5051982;28;20025;-73
2023/02/04 01:24:03;;;;;;;13.40;8.60;;;1.30;99.90;;;;;;5051825;28;20112;-73
2023/02/04 01:26:29;;;;;;;12.52;8.52;;;1.30;99.90;;;;;;5051711;28;20063;-73
2023/02/04 01:28:55;;;;;;;15.30;9.80;;;1.30;99.90;;;;;;5051840;28;20029;-75
2023/02/04 01:31:21;;;;;;;13.45;8.70;;;1.30;99.90;;;;;;5051519;28;20799;-75
2023/02/04 01:33:47;;;;;;;15.45;10.32;;;1.30;99.90;;;;;;5051730;28;20425;-74
2023/02/04 01:36:13;;;;;;;15.38;10.10;;;1.40;99.90;;;;;;5033681;28;20541;-74
2023/02/04 01:38:39;;;;;;;14.63;10.10;;;1.40;99.90;;;;;;5051352;28;20040;-74
2023/02/04 01:41:06;;;;;;;17.45;9.93;;;1.40;99.90;;;;;;5050922;28;20392;-74
2023/02/04 01:43:32;;;;;;;14.35;10.88;;;1.40;99.90;;;;;;5050851;28;20021;-76
2023/02/04 01:45:58;;;;;;;13.73;9.60;;;1.40;99.90;;;;;;5051617;28;20104;-77
2023/02/04 01:48:25;;;;;;;14.13;10.25;;;1.40;99.90;;;;;;5033718;28;20041;-76
2023/02/04 01:50:56;;;;;;;13.07;9.40;;;1.30;99.90;;;;;;5051502;28;20155;-75
2023/02/04 01:53:24;;;;;;;16.80;10.23;;;1.30;99.90;;;;;;5033397;28;20072;-74
2023/02/04 01:55:51;;;;;;;16.75;10.55;;;1.30;99.90;;;;;;5051458;28;20017;-76
2023/02/04 01:58:17;;;;;;;13.30;9.95;;;1.40;99.90;;;;;;5051045;28;20040;-74
2023/02/04 02:00:43;;;;;;;14.85;9.40;;;1.10;99.90;;;;;;5050408;28;20108;-77
2023/02/04 02:03:12;;;;;;;12.02;9.30;;;0.80;99.90;;;;;;5051436;28;20056;-75
2023/02/04 02:05:47;;;;;;;14.75;9.60;;;0.70;99.90;;;;;;5048396;28;20025;-75
2023/02/04 02:08:14;;;;;;;13.63;9.95;;;0.70;99.90;;;;;;5051061;28;20053;-76
2023/02/04 02:10:44;;;;;;;11.80;8.90;;;0.70;99.90;;;;;;5051243;28;20021;-75
2023/02/04 02:13:14;;;;;;;12.10;8.85;;;0.70;99.90;;;;;;5051370;28;20256;-75
2023/02/04 02:15:40;;;;;;;13.20;7.32;;;0.70;99.90;;;;;;5051701;28;20549;-76
2023/02/04 02:18:06;;;;;;;10.70;7.72;;;0.80;99.90;;;;;;5045735;28;20116;-75
2023/02/04 02:20:32;;;;;;;10.48;7.95;;;0.80;99.90;;;;;;5045979;28;20405;-74
2023/02/04 02:23:14;;;;;;;11.35;8.65;;;0.80;99.90;;;;;;5051206;28;20064;-74
2023/02/04 02:25:40;;;;;;;9.07;6.43;;;0.80;99.90;;;;;;5047746;28;20048;-74
2023/02/04 02:28:11;;;;;;;11.63;7.40;;;0.80;99.90;;;;;;5055132;28;20052;-72
2023/02/04 02:30:37;;;;;;;10.32;7.22;;;0.80;99.90;;;;;;5048008;28;20013;-74
2023/02/04 02:33:03;;;;;;;10.95;7.93;;;0.80;99.90;;;;;;5054939;28;20397;-74
2023/02/04 02:35:29;;;;;;;11.30;8.18;;;0.80;99.90;;;;;;5054813;28;20021;-74
2023/02/04 02:37:55;;;;;;;10.63;7.55;;;0.80;99.90;;;;;;5055005;28;20041;-75
2023/02/04 02:40:21;;;;;;;11.63;7.53;;;0.80;99.90;;;;;;5054833;28;20092;-75
2023/02/04 02:42:50;;;;;;;9.98;7.22;;;0.80;99.90;;;;;;5055035;28;20103;-75
2023/02/04 02:45:29;;;;;;;11.73;8.70;;;0.80;99.90;;;;;;5053441;28;20021;-75
2023/02/04 02:47:58;;;;;;;10.02;7.60;;;0.80;99.90;;;;;;5054750;28;20025;-75
2023/02/04 02:50:26;;;;;;;11.05;8.10;;;0.80;99.90;;;;;;5054456;28;20049;-74
2023/02/04 02:52:53;;;;;;;11.68;7.47;;;0.80;99.90;;;;;;5054805;28;20025;-75
2023/02/04 02:55:22;;;;;;;11.63;8.27;;;0.80;99.90;;;;;;5054422;28;20021;-74
2023/02/04 02:57:50;;;;;;;9.43;7.65;;;0.80;99.90;;;;;;5054261;28;20040;-75
2023/02/04 03:00:33;;;;;;;;;;;0.80;99.90;;;;;;5054774;28;20021;-74
2023/02/04 03:03:07;;;;;;;9.75;6.95;;;0.80;99.90;;;;;;5054632;28;20359;-75
2023/02/04 03:05:39;;;;;;;12.48;7.90;;;0.80;99.90;;;;;;5049193;28;20017;-75
2023/02/04 03:08:06;;;;;;;11.55;8.05;;;0.80;99.90;;;;;;5054336;28;20052;-75
2023/02/04 03:10:32;;;;;;;11.43;9.07;;;0.80;99.90;;;;;;5054469;28;20104;-74
2023/02/04 03:12:58;;;;;;;11.55;8.48;;;0.80;99.90;;;;;;5054351;28;20025;-74
2023/02/04 03:15:25;;;;;;;12.60;9.38;;;0.80;99.90;;;;;;5054498;28;20060;-74
2023/02/04 03:17:55;;;;;;;14.48;9.25;;;0.80;99.90;;;;;;5054206;28;20029;-75
2023/02/04 03:20:23;;;;;;;13.73;8.50;;;0.80;99.90;;;;;;5054193;28;20431;-74
2023/02/04 03:22:50;;;;;;;13.43;10.18;;;0.80;99.90;;;;;;5029814;28;20060;-75
2023/02/04 03:25:16;;;;;;;13.80;9.50;;;0.80;99.90;;;;;;5053777;28;20104;-76
2023/02/04 03:27:41;;;;;;;13.50;9.73;;;0.70;99.90;;;;;;5054083;28;20021;-74
2023/02/04 03:30:08;;;;;;;13.90;9.40;;;0.80;99.90;;;;;;5046545;28;20036;-76
2023/02/04 03:32:34;;;;;;;12.77;9.18;;;0.70;99.90;;;;;;5053648;28;20052;-74
2023/02/04 03:35:00;;;;;;;13.75;9.70;;;0.70;99.90;;;;;;5054429;28;20476;-75
2023/02/04 03:37:26;;;;;;;14.52;9.80;;;0.70;99.90;;;;;;5053424;28;20037;-76
2023/02/04 03:39:52;;;;;;;15.55;10.18;;;0.70;99.90;;;;;;5035858;28;20100;-74
2023/02/04 03:42:17;;;;;;;15.38;10.48;;;0.70;99.90;;;;;;5054922;28;20024;-75
2023/02/04 03:44:43;;;;;;;14.32;10.07;;;0.70;99.90;;;;;;5053971;28;20024;-73
2023/02/04 03:47:09;;;;;;;12.70;9.52;;;0.80;99.90;;;;;;5053626;28;20074;-74
2023/02/04 03:49:35;;;;;;;12.38;9.40;;;0.90;99.90;;;;;;5053565;28;20414;-74
2023/02/04 03:52:02;;;;;;;14.10;11.13;;;1.00;99.90;;;;;;5053687;28;20047;-75
2023/02/04 03:54:28;;;;;;;14.95;10.27;;;1.00;99.90;;;;;;5035587;28;20049;-75
2023/02/04 03:56:54;;;;;;;13.13;9.57;;;1.10;99.90;;;;;;5053339;28;20067;-74
2023/02/04 03:59:20;;;;;;;12.45;9.48;;;1.10;99.90;;;;;;5053274;28;20113;-74
2023/02/04 04:01:46;;;;;;;11.52;9.00;;;1.20;99.90;;;;;;5046254;28;20071;-75
2023/02/04 04:04:11;;;;;;;14.18;9.68;;;1.30;99.90;;;;;;5048256;28;20104;-74
2023/02/04 04:06:37;;;;;;;11.88;8.40;;;1.20;99.90;;;;;;5035234;28;20036;-74
2023/02/04 04:09:03;;;;;;;15.38;9.65;;;1.20;99.90;;;;;;5053092;28;20059;-76
2023/02/04 04:11:30;;;;;;;11.23;8.45;;;1.00;99.90;;;;;;5041698;28;20037;-74
2023/02/04 04:13:55;;;;;;;13.23;9.02;;;1.20;99.90;;;;;;5053437;28;20368;-75
2023/02/04 04:16:21;;;;;;;14.57;9.45;;;1.20;99.90;;;;;;5053116;28;20083;-74
2023/02/04 04:18:47;;;;;;;10.90;7.47;;;1.20;99.90;;;;;;5046446;28;20029;-73
2023/02/04 04:21:13;;;;;;;10.75;8.10;;;1.30;99.90;;;;;;5053229;28;20032;-74
2023/02/04 04:23:39;;;;;;;9.65;7.75;;;1.30;99.90;;;;;;5053029;28;20032;-74
2023/02/04 04:26:05;;;;;;;12.65;8.43;;;1.10;99.90;;;;;;5052898;28;20086;-73
2023/02/04 04:28:31;;;;;;;9.32;7.35;;;1.30;99.90;;;;;;5050070;28;20053;-74
2023/02/04 04:30:56;;;;;;;9.73;7.35;;;1.20;99.90;;;;;;5048433;28;20033;-74
2023/02/04 04:33:22;;;;;;;11.40;8.05;;;1.30;99.90;;;;;;5052710;28;20053;-74
2023/02/04 04:35:48;;;;;;;10.65;8.70;;;1.40;99.90;;;;;;5052843;28;20028;-73
2023/02/04 04:38:14;;;;;;;12.23;8.68;;;1.30;99.90;;;;;;5052477;28;20040;-74
2023/02/04 04:40:39;;;;;;;9.50;7.47;;;1.40;99.90;;;;;;5052724;28;20021;-74
2023/02/04 04:43:05;;;;;;;10.82;7.18;;;1.40;99.90;;;;;;5052504;28;20111;-74
2023/02/04 04:45:31;;;;;;;11.43;7.90;;;1.50;99.90;;;;;;5052571;28;20092;-73
2023/02/04 04:47:57;;;;;;;10.23;6.07;;;1.40;99.90;;;;;;5052481;28;20024;-73
2023/02/04 04:50:23;;;;;;;9.13;7.35;;;1.40;99.90;;;;;;5034396;28;20164;-74
2023/02/04 04:52:49;;;;;;;12.05;8.23;;;;;;;;;;5052772;28;20029;-73
2023/02/04 04:55:15;;;;;;;8.57;6.72;;;1.40;99.90;;;;;;5049187;28;20405;-72
2023/02/04 04:57:40;;;;;;;12.73;7.63;;;1.60;99.90;;;;;;5052229;28;20105;-73
2023/02/04 05:00:07;;;;;;;10.73;7.38;;;1.60;99.90;;;;;;5052221;28;20108;-74
2023/02/04 05:02:33;;;;;;;9.45;7.07;;;;;;;;;;5034267;28;20383;-73
2023/02/04 05:04:59;;;;;;;9.30;6.75;;;1.40;99.90;;;;;;5052213;28;20048;-73
2023/02/04 05:07:26;;;;;;;10.07;7.78;;;1.60;99.90;;;;;;5034126;28;20021;-74
2023/02/04 05:09:52;;;;;;;11.55;7.38;;;1.60;99.90;;;;;;5052290;28;20055;-73
2023/02/04 05:12:18;;;;;;;9.77;7.50;;;1.60;99.90;;;;;;5047139;28;20481;-74
2023/02/04 05:14:43;;;;;;;8.73;6.35;;;1.70;99.90;;;;;;5047009;28;20096;-75
2023/02/04 05:17:10;;;;;;;12.57;7.00;;;1.60;99.90;;;;;;5051877;28;20017;-75
2023/02/04 05:19:36;;;;;;;11.88;6.88;;;1.40;99.90;;;;;;5044310;28;20053;-74
2023/02/04 05:22:01;;;;;;;8.38;6.32;;;1.40;99.90;;;;;;5046015;28;20051;-74
2023/02/04 05:24:27;;;;;;;10.40;7.28;;;1.50;99.90;;;;;;5044361;28;20488;-75
2023/02/04 05:26:53;;;;;;;11.75;7.60;;;1.50;99.90;;;;;;5051602;28;20021;-75
2023/02/04 05:29:19;;;;;;;9.35;6.72;;;1.40;99.90;;;;;;5051518;28;20032;-74
2023/02/04 05:31:45;;;;;;;12.25;7.75;;;1.40;99.90;;;;;;5051463;28;20017;-73
2023/02/04 05:34:11;;;;;;;12.68;8.82;;;1.30;99.90;;;;;;5043955;28;20380;-73
2023/02/04 05:36:36;;;;;;;11.80;7.18;;;1.30;99.90;;;;;;5051541;28;20064;-75
2023/02/04 05:39:02;;;;;;;13.00;7.82;;;1.30;99.90;;;;;;5051435;28;20094;-72
2023/02/04 05:41:28;;;;;;;11.02;7.63;;;1.20;99.90;;;;;;5051236;28;20032;-75
2023/02/04 05:43:54;;;;;;;12.30;8.23;;;1.20;99.90;;;;;;5048613;28;20545;-76
2023/02/04 05:46:20;;;;;;;12.68;9.20;;;1.20;99.90;;;;;;5046512;28;20045;-74
2023/02/04 05:48:45;;;;;;;14.32;9.13;;;1.20;99.90;;;;;;5051343;28;20029;-74
2023/02/04 05:51:11;;;;;;;12.65;9.63;;;1.20;99.90;;;;;;5033595;28;20095;-76
2023/02/04 05:53:37;;;;;;;16.45;9.48;;;1.30;99.90;;;;;;5051161;28;20072;-76
2023/02/04 05:56:03;;;;;;;13.30;9.63;;;1.30;99.90;;;;;;5051169;28;20479;-75
2023/02/04 05:58:32;;;;;;;18.77;9.88;;;1.40;99.90;;;;;;5051097;28;20082;-74
2023/02/04 06:01:00;;;;;;;14.05;8.60;;;1.50;99.90;;;;;;5050616;28;20025;-75
2023/02/04 06:03:26;;;;;;;15.93;9.57;;;1.20;99.90;;;;;;5050909;28;20057;-74
2023/02/04 06:05:52;;;;;;;16.05;11.10;;;;;;;;;;5060911;28;20021;-75
2023/02/04 06:08:19;;;;;;;15.73;10.20;;;;;;;;;;5050935;28;20116;-74
2023/02/04 06:10:45;;;;;;;17.42;9.77;;;;;;;;;;5050943;28;20021;-74
2023/02/04 06:13:11;;;;;;;15.27;9.35;;;;;;;;;;5051161;28;20028;-74
2023/02/04 06:15:37;;;;;;;16.45;10.85;;;;;;;;;;5032866;28;20468;-73
2023/02/04 06:18:03;;;;;;;13.35;10.23;;;;;;;;;;5050009;28;20045;-77
2023/02/04 06:20:29;;;;;;;16.38;11.18;;;1.40;99.90;;;;;;5050815;28;20025;-75
2023/02/04 06:22:55;;;;;;;21.13;11.75;;;1.40;99.90;;;;;;5047245;28;20036;-77
2023/02/04 06:25:21;;;;;;;15.65;9.10;;;1.40;99.90;;;;;;5044626;28;20025;-74
2023/02/04 06:27:47;;;;;;;13.35;9.73;;;1.70;99.90;;;;;;5044923;28;20028;-75
2023/02/04 06:30:14;;;;;;;14.57;8.65;;;1.70;99.90;;;;;;5047371;28;20013;-76
2023/02/04 06:32:40;;;;;;;16.55;10.05;;;1.70;99.90;;;;;;5043072;28;20037;-75
2023/02/04 06:35:06;;;;;;;13.13;8.45;;;;;;;;;;5046977;28;20017;-75
2023/02/04 06:37:32;;;;;;;16.58;8.90;;;1.40;99.90;;;;;;5049628;28;20056;-75
2023/02/04 06:39:58;;;;;;;14.18;10.85;;;1.30;99.90;;;;;;5049690;28;20460;-75
2023/02/04 06:42:24;;;;;;;14.98;9.45;;;1.30;99.90;;;;;;5051204;28;20036;-75
2023/02/04 06:44:51;;;;;;;12.68;9.00;;;1.40;99.90;;;;;;5051668;28;20032;-74
2023/02/04 06:47:16;;;;;;;11.55;7.93;;;1.50;99.90;;;;;;5033647;28;20407;-75
2023/02/04 06:49:42;;;;;;;12.55;8.35;;;1.50;99.90;;;;;;5052294;28;20029;-74
2023/02/04 06:52:09;;;;;;;14.05;9.00;;;1.60;99.90;;;;;;5050879;28;20036;-75
2023/02/04 06:54:35;;;;;;;11.10;7.93;;;1.60;99.90;;;;;;5051533;28;20423;-76
2023/02/04 06:57:05;;;;;;;14.20;8.43;;;1.60;99.90;;;;;;5051404;28;20017;-76
2023/02/04 06:59:38;;;;;;;12.50;8.65;;;1.50;99.90;;;;;;5052070;28;20529;-75
2023/02/04 07:02:06;;;;;;;11.10;8.27;;;1.60;99.90;;;;;;5050586;28;20024;-76
2023/02/04 07:04:32;;;;;;;22.58;10.52;;;1.70;99.90;;;;;;5050692;28;20087;-75
2023/02/04 07:06:58;;;;;;;12.10;8.88;;;1.80;99.90;;;;;;5032672;28;20439;-75
2023/02/04 07:09:24;;;;;;;12.18;8.68;;;1.90;99.90;;;;;;5049569;28;20045;-76
2023/02/04 07:11:50;;;;;;;13.45;9.00;;;1.90;99.90;;;;;;5051464;28;20104;-76
2023/02/04 07:14:17;;;;;;;12.60;8.77;;;1.90;99.90;;;;;;5054322;28;20056;-75
2023/02/04 07:16:43;;;;;;;11.52;8.00;;;1.90;99.90;;;;;;5054524;28;20021;-74
2023/02/04 07:19:09;;;;;;;11.32;7.43;;;2.00;99.90;;;;;;5054228;28;20041;-74
2023/02/04 07:21:35;;;;;;;8.98;6.40;;;2.10;99.90;;;;;;5054565;28;20028;-75
2023/02/04 07:24:00;;;;;;;14.07;6.97;;;2.10;99.90;;;;;;5036254;28;20024;-74
2023/02/04 07:26:26;;;;;;;9.38;7.85;;;2.00;99.90;;;;;;5053061;28;20122;-75
2023/02/04 07:28:52;;;;;;;11.52;6.90;;;1.90;99.80;;;;;;5054077;28;20055;-76
2023/02/04 07:31:18;;;;;;;11.73;7.97;;;2.00;99.50;;;;;;5053952;28;20476;-74
2023/02/04 07:33:44;;;;;;;10.38;7.03;;;2.00;99.50;;;;;;5053877;28;20029;-76
2023/02/04 07:36:09;;;;;;;13.88;9.23;;;2.30;99.40;;;;;;5035976;28;20021;-75
2023/02/04 07:38:35;;;;;;;14.82;9.82;;;2.50;99.20;;;;;;5035739;28;20033;-76
2023/02/04 07:41:01;;;;;;;14.80;9.40;;;2.70;98.60;;;;;;5053807;28;20518;-76
2023/02/04 07:43:27;;;;;;;14.40;9.57;;;2.70;98.20;;;;;;5052493;28;20025;-75
2023/02/04 07:45:53;;;;;;;13.63;10.52;;;2.70;97.80;;;;;;5053621;28;20025;-76
2023/02/04 07:48:18;;;;;;;19.83;10.13;;;2.60;97.70;;;;;;5053446;28;20078;-77
2023/02/04 07:50:46;;;;;;;14.52;10.82;;;2.60;97.60;;;;;;5053582;28;20036;-74
2023/02/04 07:53:12;;;;;;;14.25;10.02;;;2.50;97.50;;;;;;5035804;28;20084;-74
2023/02/04 07:55:37;;;;;;;13.95;9.10;;;2.60;97.50;;;;;;5029411;28;20064;-76
2023/02/04 07:58:04;;;;;;;14.98;9.80;;;2.50;97.00;;;;;;5053391;28;20033;-76
2023/02/04 08:00:29;;;;;;;13.07;9.85;;;2.40;96.90;;;;;;5034278;28;20021;-75
2023/02/04 08:02:55;;;;;;;19.13;10.38;;;2.40;97.00;;;;;;5053538;28;20085;-75
2023/02/04 08:05:21;;;;;;;15.07;9.70;;;2.60;97.30;;;;;;5035141;28;20466;-75
2023/02/04 08:07:47;;;;;;;13.40;8.93;;;2.80;97.10;;;;;;5053403;28;20064;-74
2023/02/04 08:10:13;;;;;;;12.10;7.45;;;3.00;96.50;;;;;;5053201;28;20029;-76
2023/02/04 08:12:39;;;;;;;11.57;7.97;;;3.20;95.90;;;;;;5053119;28;20037;-76
2023/02/04 08:15:07;;;;;;;11.30;7.03;;;3.00;95.00;;;;;;5052123;28;20438;-75
2023/02/04 08:17:33;;;;;;;10.02;7.40;;;2.90;94.70;;;;;;5052652;28;20032;-76
2023/02/04 08:19:59;;;;;;;11.15;7.20;;;2.80;94.90;;;;;;5053122;28;20071;-75
2023/02/04 08:22:25;;;;;;;10.68;7.28;;;2.80;94.90;;;;;;5052529;28;20110;-75
2023/02/04 08:24:51;;;;;;;12.05;7.70;;;2.70;94.70;;;;;;5035212;28;20025;-74
2023/02/04 08:27:17;;;;;;;9.32;6.60;;;2.80;94.60;;;;;;5052994;28;20029;-74
2023/02/04 08:29:42;;;;;;;14.82;8.48;;;2.80;94.60;;;;;;5034721;28;20029;-75
2023/02/04 08:32:12;;;;;;;11.93;6.82;;;2.80;94.30;;;;;;5051738;28;20028;-75
2023/02/04 08:34:38;;;;;;;10.27;7.70;;;2.80;94.10;;;;;;5049487;28;20482;-76
2023/02/04 08:37:04;;;;;;;12.80;8.15;;;2.90;94.20;;;;;;5051639;28;20031;-75
2023/02/04 08:39:31;;;;;;;12.05;7.72;;;3.00;93.80;;;;;;5051835;28;20120;-75
2023/02/04 08:41:58;;;;;;;12.65;7.80;;;3.00;93.60;;;;;;5050640;28;20025;-76
2023/02/04 08:44:23;;;;;;;11.30;7.35;;;3.00;93.50;;;;;;5028254;28;20055;-75
2023/02/04 08:46:49;;;;;;;14.05;8.95;;;3.20;93.40;;;;;;5021510;28;20059;-77
2023/02/04 08:49:15;;;;;;;12.75;8.20;;;3.30;93.20;;;;;;5028415;28;20017;-78
2023/02/04 08:51:46;;;;;;;15.80;8.82;;;3.40;93.00;;;;;;5051900;28;20703;-77
2023/02/04 08:54:12;;;;;;;14.73;8.95;;;3.50;93.00;;;;;;5052274;28;20032;-76
2023/02/04 08:56:38;;;;;;;13.95;9.35;;;3.50;92.90;;;;;;5052071;28;20025;-76
2023/02/04 08:59:04;;;;;;;16.42;9.88;;;3.40;92.90;;;;;;5026358;28;20044;-77
2023/02/04 09:01:29;;;;;;;12.35;7.63;;;3.40;93.00;;;;;;5052011;28;20429;-76
2023/02/04 09:03:55;;;;;;;15.10;8.95;;;3.40;92.80;;;;;;5034089;28;20052;-76
2023/02/04 09:06:21;;;;;;;17.67;8.30;;;3.50;92.70;;;;;;5052025;28;20049;-76
2023/02/04 09:08:47;;;;;;;13.63;7.55;;;3.50;92.70;;;;;;5029812;28;20052;-76
2023/02/04 09:11:13;;;;;;;11.35;6.80;;;3.40;92.20;;;;;;5031008;28;20025;-77
2023/02/04 09:13:39;;;;;;;11.40;7.40;;;3.40;92.50;;;;;;5020347;28;20383;-75
2023/02/04 09:16:06;;;;;;;13.05;8.10;;;3.50;92.30;;;;;;5017973;28;20399;-76
2023/02/04 09:18:31;;;;;;;13.93;6.93;;;3.60;92.40;;;;;;5030537;28;20658;-76
2023/02/04 09:20:58;;;;;;;13.77;8.65;;;3.80;99.90;;;;;;5023895;28;20100;-74
2023/02/04 09:23:24;;;;;;;10.10;7.05;;;3.70;92.00;;;;;;5039014;28;20018;-77
2023/02/04 09:25:50;;;;;;;12.90;8.75;;;3.70;91.80;;;;;;5031812;28;20026;-76
2023/02/04 09:28:16;;;;;;;15.27;9.07;;;3.60;91.60;;;;;;5038225;28;20028;-75
2023/02/04 09:30:45;;;;;;;12.82;9.45;;;3.60;91.80;;;;;;5026118;28;20384;-76
2023/02/04 09:33:13;;;;;;;12.35;8.93;;;3.70;91.90;;;;;;5026726;28;20021;-76
2023/02/04 09:35:39;;;;;;;12.60;7.88;;;3.80;91.60;;;;;;5017267;28;20018;-76
2023/02/04 09:38:05;;;;;;;11.40;7.53;;;3.70;91.20;;;;;;5025517;28;20057;-77
2023/02/04 09:40:35;;;;;;;10.18;7.35;;;3.60;91.00;;;;;;5029745;28;20488;-75
2023/02/04 09:43:03;;;;;;;10.10;6.40;;;3.50;91.30;;;;;;5027721;28;20037;-77
2023/02/04 09:45:32;;;;;;;11.88;7.38;;;3.30;91.00;;;;;;5030092;28;20009;-76
2023/02/04 09:47:59;;;;;;;8.15;5.57;;;3.10;91.00;;;;;;5031820;28;20542;-76
2023/02/04 09:50:27;;;;;;;12.63;8.05;;;2.90;90.90;;;;;;5016417;28;20067;-77
2023/02/04 09:52:56;;;;;;;10.15;6.85;;;2.80;91.30;;;;;;5022739;28;20036;-76
2023/02/04 09:55:29;;;;;;;9.90;5.95;;;2.80;91.40;;;;;;5031534;28;20024;-75
2023/02/04 09:57:55;;;;;;;11.07;7.30;;;2.80;91.50;;;;;;5028806;28;20068;-76
2023/02/04 10:00:25;;;;;;;11.02;5.90;;;2.80;91.60;;;;;;5026718;28;20433;-74
2023/02/04 10:02:51;;;;;;;5.93;4.50;;;2.80;91.40;;;;;;5031281;28;20026;-81
2023/02/04 10:05:20;;;;;;;9.63;6.45;;;2.80;91.50;;;;;;5030874;28;20427;-77
2023/02/04 10:07:46;;;;;;;7.97;5.28;;;3.00;91.50;;;;;;5033580;28;20045;-79
2023/02/04 10:10:17;;;;;;;14.32;5.53;;;3.00;91.10;;;;;;5040263;28;20028;-78
2023/02/04 10:12:43;;;;;;;7.80;5.60;;;3.00;91.20;;;;;;5050850;28;20038;-80
2023/02/04 10:15:14;;;;;;;9.48;6.13;;;2.80;91.00;;;;;;5033354;28;20021;-80
2023/02/04 10:17:40;;;;;;;11.85;7.97;;;2.70;91.30;;;;;;5050945;28;20029;-76
2023/02/04 10:20:14;;;;;;;12.60;8.65;;;2.70;92.10;;;;;;5051310;28;20092;-78
2023/02/04 10:22:41;;;;;;;11.30;7.85;;;2.70;92.50;;;;;;5050825;28;20035;-77
2023/02/04 10:25:15;;;;;;;16.00;8.82;;;2.90;92.50;;;;;;5045074;28;20022;-78
2023/02/04 10:28:06;;;;;;;11.52;8.05;;;3.10;92.50;;;;;;5048526;28;20100;-76
2023/02/04 10:30:42;;;;;;;12.60;8.90;;;3.40;92.20;;;;;;5046633;28;20116;-77
2023/02/04 10:33:26;;;;;;;10.43;6.38;;;3.40;90.80;;;;;;5051280;28;20357;-81
2023/02/04 10:35:54;;;;;;;7.80;6.35;;;3.20;90.10;;;;;;5051543;28;20051;-78
2023/02/04 10:38:20;;;;;;;10.38;7.10;;;3.10;90.40;;;;;;5051061;28;20103;-80
2023/02/04 10:40:46;;;;;;;8.43;7.35;;;3.20;90.40;;;;;;5033177;28;20471;-78
2023/02/04 10:43:17;;;;;;;9.40;7.25;;;3.30;90.60;;;;;;5041869;28;20221;-82
2023/02/04 10:45:46;;;;;;;7.97;5.32;;;3.50;90.40;;;;;;5051401;28;20025;-83
2023/02/04 10:48:17;;;;;;;13.82;6.00;;;3.60;90.00;;;;;;5037153;28;20029;-82
2023/02/04 10:50:45;;;;;;;13.55;8.00;;;3.60;88.90;;;;;;5054553;28;20090;-83
2023/02/04 10:55:58;;;;;;;7.97;5.63;;;3.50;90.00;;;;;;5050107;28;20449;-85
2023/02/04 10:58:28;;;;;;;12.88;7.47;;;3.50;90.00;;;;;;5054438;28;20032;-83
2023/02/04 11:00:53;;;;;;;9.25;7.10;;;3.40;90.20;;;;;;5046888;28;20029;-83
2023/02/04 11:03:25;;;;;;;11.65;8.15;;;3.50;90.30;;;;;;5054868;28;20085;-83
2023/02/04 11:05:52;;;;;;;11.55;7.97;;;3.60;90.40;;;;;;5045813;28;20452;-85
2023/02/04 11:08:22;;;;;;;10.05;7.68;;;3.60;90.30;;;;;;5054482;28;20072;-83
2023/02/04 11:11:06;;;;;;;10.80;7.25;;;3.60;90.30;;;;;;5054463;28;20464;-82
2023/02/04 11:14:18;;;;;;;20.50;14.30;;;3.50;90.30;;;;;;5054966;28;20032;-84
2023/02/04 11:16:47;;;;;;;22.02;13.98;;;3.30;90.50;;;;;;5017675;28;20464;-84
2023/02/04 11:19:15;;;;;;;25.50;16.33;;;3.10;91.20;;;;;;5040286;28;20480;-83
2023/02/04 11:21:42;;;;;;;15.68;11.38;;;2.90;91.50;;;;;;5052142;28;20074;-82
2023/02/04 11:24:12;;;;;;;18.88;13.25;;;2.90;92.10;;;;;;5049085;28;20481;-79
2023/02/04 11:26:43;;;;;;;19.05;13.13;;;2.90;92.10;;;;;;5051708;28;20074;-78
2023/02/04 11:29:11;;;;;;;16.85;12.43;;;3.00;92.40;;;;;;5049373;28;20427;-80
2023/02/04 11:31:49;;;;;;;20.70;12.25;;;3.00;92.40;;;;;;5036169;28;20024;-78
2023/02/04 11:34:15;;;;;;;19.08;12.93;;;3.00;92.50;;;;;;5048793;28;20028;-78
2023/02/04 11:36:50;;;;;;;19.00;12.73;;;3.00;92.80;;;;;;5053015;28;20100;-78
2023/02/04 11:39:17;;;;;;;25.42;13.88;;;3.00;93.00;;;;;;5049352;28;20033;-77
2023/02/04 11:41:46;;;;;;;22.48;13.35;;;3.00;93.30;;;;;;5053675;28;20021;-77
2023/02/04 11:44:14;;;;;;;19.15;13.15;;;2.90;93.40;;;;;;5053603;28;20466;-78
2023/02/04 11:46:40;;;;;;;17.65;12.98;;;2.90;93.50;;;;;;5053580;28;20063;-77
2023/02/04 11:49:18;;;;;;;17.35;12.77;;;2.90;93.70;;;;;;5053213;28;20020;-77
2023/02/04 11:51:45;;;;;;;23.80;15.43;;;2.90;93.90;;;;;;5047316;28;20033;-82
2023/02/04 11:54:17;;;;;;;22.83;14.52;;;2.80;94.10;;;;;;5032685;28;20048;-82
2023/02/04 11:56:45;;;;;;;22.23;13.77;;;2.90;94.50;;;;;;5053862;28;20029;-84
2023/02/04 11:59:13;;;;;;;15.63;11.80;;;3.00;94.70;;;;;;5034269;28;20052;-79
2023/02/04 12:01:39;;;;;;;17.77;11.65;;;3.00;94.60;;;;;;5045101;28;20033;-77
2023/02/04 12:04:20;;;;;;;17.20;10.57;;;2.90;94.60;;;;;;5047906;28;20021;-79
2023/02/04 12:07:03;;;;;;;19.15;13.52;;;2.90;94.60;;;;;;5045058;28;20129;-78
2023/02/04 12:09:30;;;;;;;20.40;13.90;;;2.80;94.70;;;;;;5026911;28;20133;-78
2023/02/04 12:11:56;;;;;;;;;;;2.70;95.00;;;;;;5045182;28;20506;-77
2023/02/04 12:14:32;;;;;;;19.85;15.27;;;2.60;95.20;;;;;;5047247;28;20001;-76
2023/02/04 12:16:58;;;;;;;29.13;19.83;;;2.50;95.70;;;;;;5044931;28;20416;-79
2023/02/04 12:19:24;;;;;;;35.08;19.80;;;2.40;96.20;;;;;;5051184;28;20127;-78
2023/02/04 12:21:50;;;;;;;25.95;18.48;;;2.40;96.80;;;;;;5044865;28;20053;-78
2023/02/04 12:24:16;;;;;;;29.90;21.20;;;2.50;97.10;;;;;;5044049;28;20550;-75
2023/02/04 12:26:42;;;;;;;25.48;17.38;;;2.50;97.30;;;;;;5034955;28;20032;-77
2023/02/04 12:29:08;;;;;;;32.05;19.33;;;2.50;97.30;;;;;;5037085;28;20037;-79
2023/02/04 12:31:34;;;;;;;29.85;21.00;;;2.20;97.80;;;;;;5041866;28;20025;-78
2023/02/04 12:34:01;;;;;;;33.72;18.98;;;;;;;;;;5050381;28;20078;-79
2023/02/04 12:36:28;;;;;;;32.38;20.98;;;2.00;99.90;;;;;;5051184;28;20119;-79
2023/02/04 12:38:55;;;;;;;25.52;17.33;;;1.90;99.90;;;;;;5029737;28;20065;-78
2023/02/04 12:41:21;;;;;;;25.58;16.05;;;;;;;;;;5047326;28;20504;-78
2023/02/04 12:43:49;;;;;;;28.25;18.92;;;2.00;99.90;;;;;;5042910;28;20067;-78
2023/02/04 12:46:16;;;;;;;27.98;16.48;;;1.80;99.90;;;;;;5044277;28;20495;-78
2023/02/04 12:48:42;;;;;;;23.27;14.63;;;1.70;99.90;;;;;;5023123;28;20036;-78
2023/02/04 12:51:08;;;;;;;28.02;18.50;;;1.80;99.90;;;;;;5049684;28;20021;-79
2023/02/04 12:53:34;;;;;;;25.83;15.65;;;1.80;99.90;;;;;;5051623;28;20029;-79